Terminal Aerodrome Forecast
Issued by NWS

Home | Current Version | Previous Version | Text Only | Print | Product List | Glossary On
Versions: 1 2 3 4 5 6 7 8 9 10 11 12 13 14 15
000
FTUS45 KFGZ 210541
TAFPGA
TAF
KPGA 210541Z 2106/2206 18010G18KT 6SM -RA BR SCT015 OVC030
      TEMPO 2106/2109 2SM -RA BR OVC150
     FM210900 21010KT P6SM BKN015 OVC030
     FM211000 23010G15KT P6SM SCT015 BKN030
     FM220100 26006KT P6SM FEW020 SCT250=

USA.gov is the U.S. government's official web portal to all federal, state and local government web resources and services.